Terminal Aerodrome Forecast
Issued by NWS

Home | Current Version | Previous Version | Text Only | Print | Product List | Glossary On
Versions: 1 2 3 4 5 6 7 8 9 10 11 12 13 14 15 16 17 18
000
FTUS44 KCRP 211217 AAA
TAFALI
TAF AMD
KALI 211217Z 2112/2212 12003KT P6SM VCTS SCT022CB BKN035
      TEMPO 2112/2115 -TSRA BKN022CB
     FM211500 15015KT P6SM VCSH BKN015 OVC025
     FM212000 13012KT P6SM BKN025
     FM220300 VRB04KT 5SM BR BKN012
     FM221100 36012KT P6SM OVC018=

USA.gov is the U.S. government's official web portal to all federal, state and local government web resources and services.